createdAt,value
2022-10-19T00:02:17.872Z,14.28
2022-10-19T00:04:44.608Z,14.34
2022-10-19T00:07:11.009Z,14.38
2022-10-19T00:09:37.424Z,14.40
2022-10-19T00:12:03.978Z,14.39
2022-10-19T00:14:30.429Z,14.33
2022-10-19T00:16:58.088Z,14.33
2022-10-19T00:19:26.829Z,14.24
2022-10-19T00:21:53.822Z,14.18
2022-10-19T00:24:20.637Z,14.20
2022-10-19T00:26:47.580Z,14.22
2022-10-19T00:29:15.353Z,14.12
2022-10-19T00:31:41.996Z,13.91
2022-10-19T00:34:08.702Z,13.82
2022-10-19T00:36:38.768Z,13.89
2022-10-19T00:39:06.995Z,13.95
2022-10-19T00:41:35.836Z,13.99
2022-10-19T00:44:02.245Z,13.92
2022-10-19T00:46:31.937Z,14.00
2022-10-19T00:49:29.881Z,13.99
2022-10-19T00:52:10.555Z,14.06
2022-10-19T00:54:40.987Z,14.04
2022-10-19T00:57:08.752Z,14.07
2022-10-19T00:59:36.706Z,14.06
2022-10-19T01:02:04.587Z,14.04
2022-10-19T01:04:34.560Z,14.00
2022-10-19T01:07:03.569Z,14.04
2022-10-19T01:09:29.973Z,14.06
2022-10-19T01:12:21.151Z,14.10
2022-10-19T01:15:15.418Z,14.06
2022-10-19T01:18:01.681Z,13.97
2022-10-19T01:20:56.078Z,13.96
2022-10-19T01:24:04.641Z,14.01
2022-10-19T01:27:08.341Z,13.98
2022-10-19T01:29:59.521Z,14.02
2022-10-19T01:32:53.309Z,14.02
2022-10-19T01:35:33.022Z,13.93
2022-10-19T01:38:05.660Z,13.97
2022-10-19T01:40:57.037Z,14.04
2022-10-19T01:43:33.431Z,14.05
2022-10-19T01:46:11.132Z,14.01
2022-10-19T01:48:41.453Z,14.04
2022-10-19T01:51:19.452Z,14.00
2022-10-19T01:53:52.869Z,13.97
2022-10-19T01:56:23.967Z,14.06
2022-10-19T01:58:53.001Z,14.06
2022-10-19T02:01:23.926Z,13.96
2022-10-19T02:03:52.989Z,13.99
2022-10-19T02:06:20.656Z,14.00
2022-10-19T02:08:49.574Z,13.94
2022-10-19T02:11:17.082Z,13.90
2022-10-19T02:13:45.359Z,13.93
2022-10-19T02:16:27.382Z,13.95
2022-10-19T02:18:55.755Z,13.96
2022-10-19T02:21:22.507Z,13.97
2022-10-19T02:23:51.804Z,13.92
2022-10-19T02:26:21.501Z,13.74
2022-10-19T02:28:48.777Z,13.70
2022-10-19T02:31:15.345Z,13.64
2022-10-19T02:33:41.816Z,13.55
2022-10-19T02:36:08.457Z,13.52
2022-10-19T02:38:35.076Z,13.52
2022-10-19T02:41:08.055Z,13.46
2022-10-19T02:43:38.847Z,13.45
2022-10-19T02:46:23.218Z,13.35
2022-10-19T02:48:51.699Z,13.32
2022-10-19T02:51:36.710Z,13.31
2022-10-19T02:54:05.393Z,13.32
2022-10-19T02:56:33.363Z,13.27
2022-10-19T02:59:00.155Z,13.28
2022-10-19T03:01:26.682Z,13.35
2022-10-19T03:03:53.205Z,13.36
2022-10-19T03:06:19.921Z,13.31
2022-10-19T03:08:46.609Z,13.29
2022-10-19T03:11:13.051Z,13.34
2022-10-19T03:13:41.527Z,13.33
2022-10-19T03:16:10.033Z,13.25
2022-10-19T03:18:36.538Z,13.25
2022-10-19T03:21:08.151Z,13.24
2022-10-19T03:23:35.440Z,13.23
2022-10-19T03:26:02.320Z,13.22
2022-10-19T03:28:29.896Z,13.26
2022-10-19T03:30:56.918Z,13.31
2022-10-19T03:36:15.195Z,13.36
2022-10-19T03:38:41.694Z,13.38
2022-10-19T03:41:08.852Z,13.31
2022-10-19T03:43:35.636Z,13.24
2022-10-19T03:46:02.153Z,13.21
2022-10-19T03:48:28.715Z,13.12
2022-10-19T03:51:10.476Z,13.10
2022-10-19T03:53:37.617Z,13.08
2022-10-19T03:56:06.494Z,13.05
2022-10-19T03:58:34.460Z,13.03
2022-10-19T04:01:01.406Z,13.02
2022-10-19T04:03:28.101Z,13.01
2022-10-19T04:06:02.267Z,13.03
2022-10-19T04:08:28.727Z,13.05
2022-10-19T04:11:03.440Z,13.11
2022-10-19T04:13:30.340Z,13.18
2022-10-19T04:15:57.212Z,13.21
2022-10-19T04:18:23.717Z,13.24
2022-10-19T04:20:56.768Z,13.12
2022-10-19T04:23:23.806Z,12.97
2022-10-19T04:25:50.445Z,13.00
2022-10-19T04:28:16.851Z,12.94
2022-10-19T04:30:43.273Z,12.83
2022-10-19T04:33:09.748Z,12.74
2022-10-19T04:35:36.155Z,12.67
2022-10-19T04:38:02.653Z,12.71
2022-10-19T04:40:29.076Z,12.75
2022-10-19T04:42:55.472Z,12.71
2022-10-19T04:45:21.863Z,12.66
2022-10-19T04:47:48.249Z,12.59
2022-10-19T04:50:14.661Z,12.56
2022-10-19T04:52:41.084Z,12.52
2022-10-19T04:55:07.850Z,12.50
2022-10-19T04:57:34.626Z,12.52
2022-10-19T05:00:01.418Z,12.64
2022-10-19T05:02:27.801Z,12.70
2022-10-19T05:04:54.207Z,12.67
2022-10-19T05:07:20.614Z,12.71
2022-10-19T05:09:47.029Z,12.64
2022-10-19T05:12:13.416Z,12.70
2022-10-19T05:14:42.640Z,12.73
2022-10-19T05:17:09.611Z,12.77
2022-10-19T05:19:36.041Z,12.78
2022-10-19T05:22:02.444Z,12.84
2022-10-19T05:24:28.868Z,12.83
2022-10-19T05:26:55.336Z,12.81
2022-10-19T05:29:21.774Z,12.81
2022-10-19T05:31:48.243Z,12.70
2022-10-19T05:34:14.693Z,12.60
2022-10-19T05:36:41.175Z,12.61
2022-10-19T05:39:16.553Z,12.66
2022-10-19T05:41:44.925Z,12.73
2022-10-19T05:44:17.369Z,12.78
2022-10-19T05:46:44.091Z,12.84
2022-10-19T05:49:12.260Z,12.89
2022-10-19T05:51:39.240Z,12.92
2022-10-19T05:54:05.854Z,12.99
2022-10-19T05:56:32.824Z,13.06
2022-10-19T05:59:02.598Z,13.04
2022-10-19T06:01:29.899Z,12.94
2022-10-19T06:03:58.002Z,12.83
2022-10-19T06:06:25.752Z,12.84
2022-10-19T06:08:53.595Z,12.89
2022-10-19T06:11:26.334Z,12.92
2022-10-19T06:13:55.760Z,12.95
2022-10-19T06:16:24.005Z,12.99
2022-10-19T06:18:50.907Z,13.00
2022-10-19T06:21:20.161Z,13.06
2022-10-19T06:23:58.280Z,13.14
2022-10-19T06:26:25.429Z,13.42
2022-10-19T06:28:55.635Z,13.61
2022-10-19T06:31:22.153Z,13.41
2022-10-19T06:33:49.617Z,13.38
2022-10-19T06:36:22.055Z,13.36
2022-10-19T06:38:49.219Z,13.14
2022-10-19T06:41:16.075Z,13.22
2022-10-19T06:43:43.465Z,13.32
2022-10-19T06:46:17.590Z,13.41
2022-10-19T06:48:44.106Z,13.45
2022-10-19T06:51:11.917Z,13.56
2022-10-19T06:53:38.322Z,13.86
2022-10-19T06:56:06.535Z,13.99
2022-10-19T06:58:36.994Z,14.06
2022-10-19T07:01:04.790Z,14.08
2022-10-19T07:03:31.258Z,14.04
2022-10-19T07:06:00.821Z,13.73
2022-10-19T07:08:29.502Z,13.76
2022-10-19T07:10:58.751Z,13.70
2022-10-19T07:13:27.072Z,13.69
2022-10-19T07:16:06.643Z,13.68
2022-10-19T07:18:35.341Z,13.66
2022-10-19T07:21:03.642Z,13.69
2022-10-19T07:23:33.648Z,13.83
2022-10-19T07:26:07.492Z,13.84
2022-10-19T07:28:34.379Z,13.91
2022-10-19T07:31:08.714Z,13.94
2022-10-19T07:33:35.911Z,13.95
2022-10-19T07:36:05.938Z,13.99
2022-10-19T07:38:33.481Z,14.12
2022-10-19T07:41:20.333Z,14.16
2022-10-19T07:43:48.531Z,14.17
2022-10-19T07:46:19.982Z,14.21
2022-10-19T07:48:47.089Z,14.32
2022-10-19T07:51:15.000Z,14.38
2022-10-19T07:53:42.559Z,14.46
2022-10-19T07:56:11.807Z,14.53
2022-10-19T07:58:38.747Z,14.66
2022-10-19T08:01:06.490Z,14.79
2022-10-19T08:06:22.042Z,14.95
2022-10-19T08:08:48.970Z,15.01
2022-10-19T08:11:19.421Z,15.13
2022-10-19T08:13:46.353Z,15.20
2022-10-19T08:16:27.042Z,15.23
2022-10-19T08:18:57.265Z,15.31
2022-10-19T08:21:24.406Z,15.34
2022-10-19T08:23:50.814Z,15.41
2022-10-19T08:26:17.245Z,15.57
2022-10-19T08:28:43.726Z,15.64
2022-10-19T08:31:18.302Z,15.75
2022-10-19T08:33:45.158Z,15.85
2022-10-19T08:36:13.311Z,15.95
2022-10-19T08:38:41.364Z,16.06
2022-10-19T08:41:21.013Z,16.11
2022-10-19T08:44:18.438Z,16.21
2022-10-19T08:47:17.525Z,16.30
2022-10-19T08:49:46.323Z,16.40
2022-10-19T08:52:18.860Z,16.49
2022-10-19T08:55:19.793Z,16.58
2022-10-19T08:57:53.362Z,16.68
2022-10-19T09:00:43.431Z,16.90
2022-10-19T09:03:43.976Z,17.02
2022-10-19T09:06:31.958Z,16.97
2022-10-19T09:08:59.108Z,17.09
2022-10-19T09:11:31.251Z,17.19
2022-10-19T09:14:31.698Z,17.25
2022-10-19T09:17:02.479Z,17.39
2022-10-19T09:19:31.862Z,17.45
2022-10-19T09:22:03.783Z,17.66
2022-10-19T09:24:49.202Z,17.74
2022-10-19T09:27:24.308Z,17.87
2022-10-19T09:30:00.453Z,18.03
2022-10-19T09:32:33.056Z,18.11
2022-10-19T09:35:08.124Z,18.17
2022-10-19T09:37:44.151Z,18.35
2022-10-19T09:40:26.801Z,18.51
2022-10-19T09:43:13.321Z,18.55
2022-10-19T09:45:48.704Z,18.63
2022-10-19T09:48:30.907Z,18.77
2022-10-19T09:51:02.494Z,18.84
2022-10-19T09:53:30.208Z,19.06
2022-10-19T09:56:04.455Z,19.21
2022-10-19T09:58:33.087Z,19.26
2022-10-19T10:01:01.106Z,19.37
2022-10-19T10:03:40.405Z,19.56
2022-10-19T10:06:10.373Z,19.70
2022-10-19T10:08:45.046Z,19.80
2022-10-19T10:11:14.522Z,19.93
2022-10-19T10:13:50.714Z,20.01
2022-10-19T10:16:21.006Z,20.11
2022-10-19T10:18:56.816Z,20.20
2022-10-19T10:21:26.486Z,20.23
2022-10-19T10:24:29.204Z,20.29
2022-10-19T10:26:58.653Z,20.25
2022-10-19T10:29:33.772Z,20.34
2022-10-19T10:32:19.805Z,20.44
2022-10-19T10:34:57.286Z,20.53
2022-10-19T10:37:47.269Z,20.56
2022-10-19T10:40:31.170Z,20.54
2022-10-19T10:43:09.426Z,20.68
2022-10-19T10:45:42.613Z,20.79
2022-10-19T10:48:33.101Z,20.91
2022-10-19T10:51:01.133Z,20.91
2022-10-19T10:53:39.855Z,20.81
2022-10-19T10:56:22.173Z,20.86
2022-10-19T10:59:04.817Z,20.85
2022-10-19T11:01:40.012Z,20.85
2022-10-19T11:04:19.764Z,21.10
2022-10-19T11:06:54.020Z,21.18
2022-10-19T11:09:34.504Z,21.08
2022-10-19T11:12:05.102Z,21.12
2022-10-19T11:14:52.230Z,21.10
2022-10-19T11:17:23.027Z,21.15
2022-10-19T11:19:53.612Z,21.10
2022-10-19T11:22:27.103Z,21.15
2022-10-19T11:24:53.662Z,21.08
2022-10-19T11:27:28.848Z,21.13
2022-10-19T11:30:14.239Z,21.33
2022-10-19T11:33:14.737Z,21.37
2022-10-19T11:35:52.887Z,21.55
2022-10-19T11:38:44.350Z,21.66
2022-10-19T11:41:39.166Z,21.60
2022-10-19T11:44:20.874Z,21.69
2022-10-19T11:46:57.312Z,21.83
2022-10-19T11:49:44.894Z,21.87
2022-10-19T11:52:27.782Z,21.86
2022-10-19T11:54:59.806Z,21.61
2022-10-19T11:57:31.079Z,21.59
2022-10-19T12:00:15.098Z,21.65
2022-10-19T12:03:17.240Z,21.62
2022-10-19T12:06:23.738Z,21.83
2022-10-19T12:08:56.401Z,21.87
2022-10-19T12:11:57.633Z,21.93
2022-10-19T12:14:26.465Z,21.82
2022-10-19T12:16:57.793Z,21.79
2022-10-19T12:19:28.725Z,21.84
2022-10-19T12:21:58.512Z,21.90
2022-10-19T12:24:26.309Z,21.89
2022-10-19T12:26:54.781Z,21.83
2022-10-19T12:29:29.519Z,21.85
2022-10-19T12:31:57.682Z,21.83
2022-10-19T12:34:36.119Z,21.80
2022-10-19T12:37:29.109Z,21.88
2022-10-19T12:40:18.496Z,21.97
2022-10-19T12:45:23.751Z,21.98
2022-10-19T12:48:08.523Z,21.96
2022-10-19T12:53:40.437Z,22.06
2022-10-19T12:56:09.643Z,22.12
2022-10-19T12:58:47.704Z,22.13
2022-10-19T13:01:28.433Z,22.19
2022-10-19T13:04:09.397Z,22.23
2022-10-19T13:06:42.782Z,22.23
2022-10-19T13:09:23.405Z,22.13
2022-10-19T13:12:17.827Z,22.23
2022-10-19T13:14:52.366Z,22.32
2022-10-19T13:17:34.415Z,22.31
2022-10-19T13:20:19.159Z,22.45
2022-10-19T13:22:49.671Z,22.50
2022-10-19T13:25:16.081Z,22.42
2022-10-19T13:27:43.968Z,22.44
2022-10-19T13:30:35.259Z,22.50
2022-10-19T13:33:24.608Z,22.48
2022-10-19T13:36:07.679Z,22.51
2022-10-19T13:38:40.012Z,22.64
2022-10-19T13:41:26.346Z,22.53
2022-10-19T13:43:52.743Z,22.50
2022-10-19T13:46:31.152Z,22.54
2022-10-19T13:49:15.905Z,22.58
2022-10-19T13:52:03.848Z,22.57
2022-10-19T13:55:18.662Z,22.66
2022-10-19T13:58:03.713Z,22.66
2022-10-19T14:00:57.776Z,22.66
2022-10-19T14:03:58.320Z,22.63
2022-10-19T14:06:32.924Z,22.55
2022-10-19T14:09:20.819Z,22.48
2022-10-19T14:11:51.263Z,22.48
2022-10-19T14:14:20.733Z,22.51
2022-10-19T14:16:56.012Z,22.61
2022-10-19T14:19:30.394Z,22.59
2022-10-19T14:21:59.354Z,22.59
2022-10-19T14:24:35.269Z,22.49
2022-10-19T14:27:06.914Z,22.39
2022-10-19T14:29:43.058Z,22.37
2022-10-19T14:32:11.232Z,22.41
2022-10-19T14:34:46.146Z,22.46
2022-10-19T14:37:33.130Z,22.48
2022-10-19T14:40:35.760Z,22.47
2022-10-19T14:43:19.993Z,22.53
2022-10-19T14:46:03.787Z,22.55
2022-10-19T14:48:30.282Z,22.64
2022-10-19T14:50:57.796Z,22.73
2022-10-19T14:53:48.819Z,22.71
2022-10-19T14:56:32.785Z,22.66
2022-10-19T14:59:07.490Z,22.53
2022-10-19T15:01:35.166Z,22.49
2022-10-19T15:04:01.873Z,22.51
2022-10-19T15:06:31.722Z,22.49
2022-10-19T15:09:02.592Z,22.48
2022-10-19T15:11:28.971Z,22.50
2022-10-19T15:14:00.213Z,22.48
2022-10-19T15:16:49.884Z,22.36
2022-10-19T15:19:36.513Z,22.33
2022-10-19T15:22:08.960Z,22.40
2022-10-19T15:24:36.665Z,22.44
2022-10-19T15:27:29.419Z,22.41
2022-10-19T15:29:57.697Z,22.38
2022-10-19T15:32:29.463Z,22.32
2022-10-19T15:34:55.932Z,22.31
2022-10-19T15:37:24.070Z,22.31
2022-10-19T15:39:52.411Z,22.27
2022-10-19T15:42:22.969Z,22.26
2022-10-19T15:44:49.514Z,22.16
2022-10-19T15:47:16.065Z,22.06
2022-10-19T15:49:42.508Z,22.02
2022-10-19T15:52:16.430Z,21.94
2022-10-19T15:54:42.959Z,21.83
2022-10-19T15:57:35.185Z,21.72
2022-10-19T16:00:12.165Z,21.61
2022-10-19T16:02:39.142Z,21.45
2022-10-19T16:07:37.646Z,21.19
2022-10-19T16:10:05.440Z,21.15
2022-10-19T16:12:31.938Z,21.03
2022-10-19T16:14:58.467Z,20.90
2022-10-19T16:17:24.980Z,20.81
2022-10-19T16:19:51.525Z,20.73
2022-10-19T16:22:17.973Z,20.68
2022-10-19T16:24:44.391Z,20.62
2022-10-19T16:27:15.038Z,20.54
2022-10-19T16:29:42.934Z,20.46
2022-10-19T16:32:09.520Z,20.38
2022-10-19T16:34:35.989Z,20.32
2022-10-19T16:37:05.744Z,20.26
2022-10-19T16:39:33.600Z,20.21
2022-10-19T16:42:00.335Z,20.16
2022-10-19T16:44:26.853Z,20.09
2022-10-19T16:46:55.441Z,19.99
2022-10-19T16:49:21.890Z,19.92
2022-10-19T16:51:49.976Z,19.82
2022-10-19T16:54:18.874Z,19.78
2022-10-19T16:56:46.827Z,19.75
2022-10-19T16:59:16.423Z,19.71
2022-10-19T17:01:45.565Z,19.68
2022-10-19T17:04:13.242Z,19.64
2022-10-19T17:06:40.619Z,19.59
2022-10-19T17:11:54.434Z,19.47
2022-10-19T17:14:20.887Z,19.41
2022-10-19T17:16:47.359Z,19.37
2022-10-19T17:19:13.870Z,19.31
2022-10-19T17:21:42.215Z,19.29
2022-10-19T17:24:18.679Z,19.23
2022-10-19T17:26:48.807Z,19.20
2022-10-19T17:29:15.241Z,19.13
2022-10-19T17:31:42.259Z,19.09
2022-10-19T17:34:09.757Z,19.07
2022-10-19T17:39:18.893Z,18.91
2022-10-19T17:41:47.045Z,18.84
2022-10-19T17:44:14.075Z,18.79
2022-10-19T17:46:40.544Z,18.74
2022-10-19T17:49:07.215Z,18.69
2022-10-19T17:51:35.920Z,18.65
2022-10-19T17:54:05.337Z,18.58
2022-10-19T17:56:31.780Z,18.57
2022-10-19T17:58:58.644Z,18.57
2022-10-19T18:01:25.735Z,18.45
2022-10-19T18:03:52.522Z,18.44
2022-10-19T18:06:20.821Z,18.46
2022-10-19T18:08:49.526Z,18.42
2022-10-19T18:11:21.985Z,18.27
2022-10-19T18:13:50.562Z,18.19
2022-10-19T18:16:29.446Z,18.18
2022-10-19T18:18:58.737Z,18.22
2022-10-19T18:21:28.621Z,18.22
2022-10-19T18:23:57.062Z,18.16
2022-10-19T18:26:25.248Z,18.12
2022-10-19T18:28:53.000Z,18.07
2022-10-19T18:31:25.105Z,17.98
2022-10-19T18:33:57.665Z,17.90
2022-10-19T18:36:24.297Z,17.80
2022-10-19T18:38:52.397Z,17.74
2022-10-19T18:41:19.314Z,17.75
2022-10-19T18:43:54.057Z,17.69
2022-10-19T18:46:22.327Z,17.65
2022-10-19T18:48:49.760Z,17.64
2022-10-19T18:51:17.457Z,17.66
2022-10-19T18:53:45.211Z,17.62
2022-10-19T18:56:13.600Z,17.51
2022-10-19T18:58:40.122Z,17.43
2022-10-19T19:01:18.225Z,17.39
2022-10-19T19:03:46.821Z,17.42
2022-10-19T19:06:19.522Z,17.46
2022-10-19T19:08:46.234Z,17.44
2022-10-19T19:11:15.342Z,17.40
2022-10-19T19:13:46.874Z,17.40
2022-10-19T19:16:13.296Z,17.39
2022-10-19T19:18:39.716Z,17.34
2022-10-19T19:21:21.217Z,17.27
2022-10-19T19:23:48.412Z,17.25
2022-10-19T19:26:15.415Z,17.23
2022-10-19T19:28:44.221Z,17.17
2022-10-19T19:31:12.172Z,17.08
2022-10-19T19:33:38.904Z,17.07
2022-10-19T19:36:07.130Z,17.05
2022-10-19T19:38:33.926Z,17.04
2022-10-19T19:41:03.638Z,17.07
2022-10-19T19:43:32.569Z,17.04
2022-10-19T19:46:03.300Z,17.08
2022-10-19T19:48:32.768Z,17.03
2022-10-19T19:50:59.193Z,17.00
2022-10-19T19:53:25.633Z,16.96
2022-10-19T19:55:52.060Z,16.89
2022-10-19T19:58:18.924Z,16.82
2022-10-19T20:00:46.407Z,16.83
2022-10-19T20:03:13.567Z,16.83
2022-10-19T20:05:40.802Z,16.84
2022-10-19T20:08:07.962Z,16.84
2022-10-19T20:10:39.022Z,16.79
2022-10-19T20:13:05.440Z,16.69
2022-10-19T20:15:31.955Z,16.65
2022-10-19T20:17:58.397Z,16.64
2022-10-19T20:20:24.802Z,16.58
2022-10-19T20:22:51.258Z,16.50
2022-10-19T20:25:17.779Z,16.47
2022-10-19T20:27:44.238Z,16.36
2022-10-19T20:30:11.049Z,16.30
2022-10-19T20:32:38.047Z,16.31
2022-10-19T20:35:05.022Z,16.34
2022-10-19T20:37:31.581Z,16.35
2022-10-19T20:39:58.048Z,16.39
2022-10-19T20:42:24.526Z,16.37
2022-10-19T20:44:51.030Z,16.36
2022-10-19T20:47:17.519Z,16.30
2022-10-19T20:49:43.960Z,16.23
2022-10-19T20:52:10.386Z,16.25
2022-10-19T20:54:37.122Z,16.26
2022-10-19T20:57:03.672Z,16.29
2022-10-19T20:59:31.455Z,16.33
2022-10-19T21:01:57.981Z,16.34
2022-10-19T21:04:25.618Z,16.35
2022-10-19T21:06:52.438Z,16.34
2022-10-19T21:09:21.377Z,16.26
2022-10-19T21:11:50.182Z,16.22
2022-10-19T21:14:25.283Z,16.17
2022-10-19T21:16:56.772Z,16.16
2022-10-19T21:19:25.397Z,16.13
2022-10-19T21:21:55.455Z,16.12
2022-10-19T21:24:24.615Z,16.13
2022-10-19T21:29:23.029Z,16.22
2022-10-19T21:31:52.127Z,16.21
2022-10-19T21:34:27.033Z,16.13
2022-10-19T21:36:53.903Z,16.10
2022-10-19T21:39:21.142Z,16.14
2022-10-19T21:41:48.480Z,16.16
2022-10-19T21:44:16.992Z,16.23
2022-10-19T21:46:44.060Z,16.28
2022-10-19T21:49:11.975Z,16.27
2022-10-19T21:51:50.989Z,16.22
2022-10-19T21:54:21.340Z,16.08
2022-10-19T21:56:48.383Z,15.96
2022-10-19T21:59:15.655Z,15.88
2022-10-19T22:01:42.318Z,15.90
2022-10-19T22:04:14.978Z,15.92
2022-10-19T22:06:42.463Z,15.84
2022-10-19T22:09:11.719Z,15.84
2022-10-19T22:11:38.309Z,15.76
2022-10-19T22:14:04.765Z,15.68
2022-10-19T22:16:36.793Z,15.64
2022-10-19T22:19:05.285Z,15.64
2022-10-19T22:21:33.614Z,15.70
2022-10-19T22:24:06.569Z,15.72
2022-10-19T22:26:35.807Z,15.65
2022-10-19T22:29:03.993Z,15.58
2022-10-19T22:31:31.501Z,15.54
2022-10-19T22:34:00.076Z,15.48
2022-10-19T22:36:26.531Z,15.43
2022-10-19T22:38:52.997Z,15.36
2022-10-19T22:41:19.385Z,15.36
2022-10-19T22:44:41.875Z,15.41
2022-10-19T22:48:04.674Z,15.43
2022-10-19T22:51:27.558Z,15.42
2022-10-19T22:53:54.058Z,15.46
2022-10-19T22:56:20.601Z,15.47
2022-10-19T22:58:47.047Z,15.47
2022-10-19T23:01:15.310Z,15.50
2022-10-19T23:03:42.005Z,15.51
2022-10-19T23:06:11.469Z,15.51
2022-10-19T23:08:39.238Z,15.52
2022-10-19T23:11:06.237Z,15.55
2022-10-19T23:13:32.728Z,15.64
2022-10-19T23:15:59.259Z,15.69
2022-10-19T23:18:25.707Z,15.75
2022-10-19T23:21:01.494Z,15.80
2022-10-19T23:23:29.321Z,15.76
2022-10-19T23:26:04.038Z,15.62
2022-10-19T23:28:31.977Z,15.62
2022-10-19T23:30:59.288Z,15.64
2022-10-19T23:33:26.340Z,15.60
2022-10-19T23:35:52.779Z,15.45
2022-10-19T23:38:19.186Z,15.34
2022-10-19T23:40:45.636Z,15.26
2022-10-19T23:43:12.062Z,15.12
2022-10-19T23:45:39.335Z,15.03
2022-10-19T23:48:05.832Z,15.03
2022-10-19T23:50:32.241Z,15.01
2022-10-19T23:52:58.676Z,14.99
2022-10-19T23:55:25.092Z,15.01
2022-10-19T23:57:51.501Z,14.98
